createdAt,value
2022-09-20T00:02:34.820Z,99484.69
2022-09-20T00:05:57.787Z,99474.94
2022-09-20T00:09:22.181Z,99497.09
2022-09-20T00:12:45.039Z,99483.53
2022-09-20T00:16:09.883Z,99506.63
2022-09-20T00:19:32.905Z,99504.19
2022-09-20T00:22:55.971Z,99508.53
2022-09-20T00:26:20.668Z,99513.72
2022-09-20T00:29:43.525Z,99513.81
2022-09-20T00:33:07.623Z,99519.97
2022-09-20T00:36:29.242Z,99521.75
2022-09-20T00:39:52.121Z,99512.09
2022-09-20T00:43:18.340Z,99519.75
2022-09-20T00:46:46.114Z,99529.03
2022-09-20T00:50:24.132Z,99535.81
2022-09-20T00:53:51.276Z,99533.88
2022-09-20T00:57:14.241Z,99533.88
2022-09-20T01:00:40.135Z,99535.41
2022-09-20T01:04:05.059Z,99539.56
2022-09-20T01:07:31.621Z,99548.88
2022-09-20T01:10:55.139Z,99545.22
2022-09-20T01:14:20.611Z,99545.06
2022-09-20T01:17:48.688Z,99549.13
2022-09-20T01:21:12.261Z,99561.97
2022-09-20T01:24:43.111Z,99547.38
2022-09-20T01:28:07.602Z,99559.28
2022-09-20T01:31:36.962Z,99557.59
2022-09-20T01:35:03.358Z,99561.66
2022-09-20T01:38:36.660Z,99558.91
2022-09-20T01:42:02.387Z,99562.34
2022-09-20T01:45:30.829Z,99563.13
2022-09-20T01:49:02.942Z,99573.28
2022-09-20T01:53:09.639Z,99573.22
2022-09-20T01:57:04.231Z,99581.63
2022-09-20T02:00:31.389Z,99589.28
2022-09-20T02:04:26.918Z,99581.47
2022-09-20T02:08:10.791Z,99591.59
2022-09-20T02:11:48.065Z,99594.03
2022-09-20T02:15:28.947Z,99591.38
2022-09-20T02:19:19.240Z,99599.88
2022-09-20T02:23:00.075Z,99601.53
2022-09-20T02:26:41.515Z,99612.56
2022-09-20T02:30:22.092Z,99607.31
2022-09-20T02:34:05.831Z,99612.34
2022-09-20T02:37:50.608Z,99609.75
2022-09-20T02:41:49.608Z,99613.03
2022-09-20T02:45:23.435Z,99622.53
2022-09-20T02:48:58.173Z,99631.09
2022-09-20T02:52:32.444Z,99629.34
2022-09-20T02:56:05.446Z,99635.31
2022-09-20T02:59:38.614Z,99648.22
2022-09-20T03:03:10.456Z,99651.59
2022-09-20T03:06:44.774Z,99649.91
2022-09-20T03:10:19.116Z,99655.81
2022-09-20T03:14:06.671Z,99664.47
2022-09-20T03:17:46.904Z,99661.03
2022-09-20T03:21:24.608Z,99668.75
2022-09-20T03:25:01.396Z,99678.31
2022-09-20T03:28:53.334Z,99686.88
2022-09-20T03:32:30.945Z,99687.78
2022-09-20T03:36:05.987Z,99685.28
2022-09-20T03:39:57.472Z,99692.09
2022-09-20T03:43:33.568Z,99704.84
2022-09-20T03:47:05.957Z,99703.19
2022-09-20T03:50:44.173Z,99712.59
2022-09-20T03:54:37.462Z,99710.75
2022-09-20T03:58:17.306Z,99717.72
2022-09-20T04:02:02.422Z,99727.19
2022-09-20T04:05:37.016Z,99730.66
2022-09-20T04:09:17.485Z,99727.97
2022-09-20T04:12:51.296Z,99734.94
2022-09-20T04:16:25.514Z,99746.88
2022-09-20T04:19:55.136Z,99746.00
2022-09-20T04:23:33.251Z,99751.78
2022-09-20T04:27:02.669Z,99746.72
2022-09-20T04:30:30.696Z,99755.94
2022-09-20T04:33:57.803Z,99763.38
2022-09-20T04:37:27.936Z,99767.59
2022-09-20T04:41:16.987Z,99781.28
2022-09-20T04:44:57.682Z,99786.44
2022-09-20T04:48:57.300Z,99790.72
2022-09-20T04:52:56.610Z,99787.97
2022-09-20T04:56:25.715Z,99801.75
2022-09-20T05:00:05.260Z,99799.84
2022-09-20T05:03:57.403Z,99809.19
2022-09-20T05:07:44.910Z,99813.50
2022-09-20T05:11:50.505Z,99816.63
2022-09-20T05:15:38.243Z,99829.06
2022-09-20T05:19:28.131Z,99826.06
2022-09-20T05:23:23.503Z,99832.44
2022-09-20T05:27:05.667Z,99832.22
2022-09-20T05:30:38.459Z,99840.81
2022-09-20T05:34:12.783Z,99844.84
2022-09-20T05:37:48.129Z,99843.63
2022-09-20T05:41:17.954Z,99845.00
2022-09-20T05:44:58.553Z,99850.59
2022-09-20T05:48:32.958Z,99858.72
2022-09-20T05:52:12.092Z,99857.31
2022-09-20T05:56:01.587Z,99863.66
2022-09-20T05:59:33.962Z,99859.53
2022-09-20T06:03:08.902Z,99871.81
2022-09-20T06:06:41.584Z,99873.72
2022-09-20T06:10:31.481Z,99874.56
2022-09-20T06:14:07.597Z,99887.66
2022-09-20T06:17:36.542Z,99893.03
2022-09-20T06:21:14.561Z,99892.69
2022-09-20T06:24:41.508Z,99901.34
2022-09-20T06:28:11.123Z,99914.00
2022-09-20T06:31:33.985Z,99913.56
2022-09-20T06:34:57.046Z,99914.81
2022-09-20T06:39:04.456Z,99925.91
2022-09-20T06:42:28.021Z,99932.69
2022-09-20T06:45:50.909Z,99935.25
2022-09-20T06:49:13.746Z,99935.66
2022-09-20T06:52:37.208Z,99937.66
2022-09-20T06:56:02.624Z,99947.97
2022-09-20T06:59:25.595Z,99965.63
2022-09-20T07:02:49.265Z,99977.31
2022-09-20T07:06:12.326Z,99970.88
2022-09-20T07:09:36.005Z,99957.91
2022-09-20T07:13:02.035Z,99971.09
2022-09-20T07:16:25.011Z,99973.41
2022-09-20T07:19:48.054Z,99985.94
2022-09-20T07:23:11.219Z,99972.00
2022-09-20T07:26:34.587Z,99991.63
2022-09-20T07:29:59.090Z,99989.31
2022-09-20T07:33:22.053Z,99995.25
2022-09-20T07:36:45.319Z,100000.47
2022-09-20T07:40:10.081Z,99990.63
2022-09-20T07:43:33.793Z,100010.06
2022-09-20T07:46:59.620Z,100006.31
2022-09-20T07:50:22.912Z,100012.69
2022-09-20T07:53:45.745Z,100011.13
2022-09-20T07:57:08.702Z,100016.66
2022-09-20T08:00:31.874Z,100021.28
2022-09-20T08:03:59.031Z,100018.25
2022-09-20T08:07:25.374Z,100033.47
2022-09-20T08:10:49.453Z,100033.19
2022-09-20T08:14:15.933Z,100033.22
2022-09-20T08:17:38.757Z,100036.91
2022-09-20T08:21:07.445Z,100039.94
2022-09-20T08:24:30.300Z,100037.84
2022-09-20T08:27:55.117Z,100049.44
2022-09-20T08:31:20.744Z,100040.06
2022-09-20T08:34:50.139Z,100055.13
2022-09-20T08:42:02.689Z,100068.25
2022-09-20T08:45:35.505Z,100070.03
2022-09-20T08:49:00.282Z,100074.63
2022-09-20T08:52:36.336Z,100066.34
2022-09-20T08:56:01.928Z,100081.59
2022-09-20T08:59:26.671Z,100086.22
2022-09-20T09:02:54.655Z,100085.28
2022-09-20T09:06:21.400Z,100086.25
2022-09-20T09:09:47.116Z,100086.31
2022-09-20T09:13:23.502Z,100081.69
2022-09-20T09:16:46.467Z,100095.25
2022-09-20T09:20:22.113Z,100094.41
2022-09-20T09:23:51.423Z,100108.31
2022-09-20T09:27:17.150Z,100110.56
2022-09-20T09:30:43.071Z,100113.75
2022-09-20T09:34:06.189Z,100112.81
2022-09-20T09:37:31.551Z,100116.94
2022-09-20T09:40:56.566Z,100120.47
2022-09-20T09:44:25.662Z,100125.31
2022-09-20T09:47:49.861Z,100127.78
2022-09-20T09:51:15.943Z,100137.69
2022-09-20T09:54:41.710Z,100137.47
2022-09-20T09:58:10.825Z,100148.72
2022-09-20T10:01:45.813Z,100142.81
2022-09-20T10:05:16.914Z,100142.41
2022-09-20T10:08:48.266Z,100142.72
2022-09-20T10:12:22.494Z,100125.47
2022-09-20T10:15:54.367Z,100150.38
2022-09-20T10:19:26.946Z,100166.16
2022-09-20T10:23:29.903Z,100173.53
2022-09-20T10:27:13.893Z,100171.63
2022-09-20T10:30:49.939Z,100171.63
2022-09-20T10:34:37.093Z,100170.19
2022-09-20T10:38:15.101Z,100183.38
2022-09-20T10:42:05.514Z,100178.28
2022-09-20T10:46:03.772Z,100180.84
2022-09-20T10:49:29.325Z,100182.09
2022-09-20T10:53:09.480Z,100194.44
2022-09-20T10:56:38.375Z,100198.34
2022-09-20T11:00:10.557Z,100206.59
2022-09-20T11:04:04.715Z,100207.72
2022-09-20T11:07:43.377Z,100207.00
2022-09-20T11:11:13.907Z,100221.31
2022-09-20T11:14:42.920Z,100228.00
2022-09-20T11:18:10.075Z,100231.50
2022-09-20T11:21:36.969Z,100235.91
2022-09-20T11:25:06.969Z,100232.66
2022-09-20T11:28:39.846Z,100237.06
2022-09-20T11:32:13.754Z,100237.06
2022-09-20T11:35:41.629Z,100236.34
2022-09-20T11:39:13.087Z,100255.91
2022-09-20T11:42:42.106Z,100251.09
2022-09-20T11:46:10.775Z,100261.09
2022-09-20T11:49:55.560Z,100255.94
2022-09-20T11:53:36.830Z,100258.69
2022-09-20T11:57:01.138Z,100266.97
2022-09-20T12:00:32.086Z,100273.06
2022-09-20T12:04:27.769Z,100296.78
2022-09-20T12:07:46.687Z,100299.22
2022-09-20T12:11:12.100Z,100306.16
2022-09-20T12:14:37.930Z,100309.38
2022-09-20T12:18:24.843Z,100326.19
2022-09-20T12:22:31.630Z,100321.78
2022-09-20T12:26:13.842Z,100324.72
2022-09-20T12:30:06.891Z,100333.47
2022-09-20T12:33:57.835Z,100338.16
2022-09-20T12:37:25.905Z,100325.69
2022-09-20T12:41:01.468Z,100326.88
2022-09-20T12:44:32.201Z,100342.25
2022-09-20T12:47:57.106Z,100347.53
2022-09-20T12:51:43.624Z,100336.31
2022-09-20T12:55:11.189Z,100348.31
2022-09-20T12:58:40.187Z,100355.50
2022-09-20T13:02:44.210Z,100353.41
2022-09-20T13:06:29.400Z,100361.06
2022-09-20T13:09:52.659Z,100371.28
2022-09-20T13:13:29.856Z,100361.88
2022-09-20T13:16:56.910Z,100362.31
2022-09-20T13:20:24.476Z,100361.69
2022-09-20T13:23:52.863Z,100379.91
2022-09-20T13:27:20.442Z,100379.72
2022-09-20T13:30:45.030Z,100382.88
2022-09-20T13:34:22.743Z,100375.63
2022-09-20T13:37:55.216Z,100374.38
2022-09-20T13:41:18.490Z,100388.50
2022-09-20T13:44:41.956Z,100383.84
2022-09-20T13:48:10.863Z,100398.03
2022-09-20T13:51:35.871Z,100396.44
2022-09-20T13:54:59.546Z,100390.75
2022-09-20T13:58:25.991Z,100399.81
2022-09-20T14:01:52.262Z,100414.53
2022-09-20T14:05:20.509Z,100408.53
2022-09-20T14:08:46.337Z,100414.94
2022-09-20T14:12:10.115Z,100412.91
2022-09-20T14:15:38.599Z,100422.59
2022-09-20T14:19:02.993Z,100433.69
2022-09-20T14:22:29.646Z,100435.44
2022-09-20T14:26:07.961Z,100434.47
2022-09-20T14:29:31.849Z,100445.28
2022-09-20T14:32:58.302Z,100453.38
2022-09-20T14:36:22.886Z,100451.78
2022-09-20T14:39:52.195Z,100459.75
2022-09-20T14:43:32.434Z,100459.84
2022-09-20T14:46:56.346Z,100463.31
2022-09-20T14:50:26.878Z,100471.50
2022-09-20T14:53:52.402Z,100478.91
2022-09-20T14:57:16.592Z,100477.41
2022-09-20T15:00:51.657Z,100479.84
2022-09-20T15:04:21.784Z,100485.47
2022-09-20T15:07:45.636Z,100491.28
2022-09-20T15:11:08.608Z,100495.03
2022-09-20T15:14:37.807Z,100505.72
2022-09-20T15:18:04.145Z,100509.47
2022-09-20T15:21:27.107Z,100509.84
2022-09-20T15:24:50.577Z,100517.34
2022-09-20T15:28:17.742Z,100520.06
2022-09-20T15:31:41.789Z,100516.94
2022-09-20T15:35:11.541Z,100524.72
2022-09-20T15:38:34.187Z,100530.84
2022-09-20T15:41:57.800Z,100532.78
2022-09-20T15:45:21.794Z,100541.78
2022-09-20T15:48:46.456Z,100546.38
2022-09-20T15:52:09.781Z,100539.03
2022-09-20T15:55:32.470Z,100550.53
2022-09-20T15:59:00.041Z,100561.22
2022-09-20T16:02:24.688Z,100567.59
2022-09-20T16:06:04.058Z,100567.84
2022-09-20T16:09:27.713Z,100579.63
2022-09-20T16:12:50.718Z,100575.81
2022-09-20T16:16:16.438Z,100582.13
2022-09-20T16:19:39.411Z,100582.53
2022-09-20T16:23:04.973Z,100585.59
2022-09-20T16:26:29.520Z,100594.81
2022-09-20T16:29:52.893Z,100590.84
2022-09-20T16:33:16.266Z,100594.63
2022-09-20T16:36:39.429Z,100601.97
2022-09-20T16:40:04.507Z,100600.44
2022-09-20T16:43:27.297Z,100606.94
2022-09-20T16:46:49.950Z,100611.56
2022-09-20T16:50:13.624Z,100616.06
2022-09-20T16:53:36.775Z,100619.69
2022-09-20T16:57:01.507Z,100626.00
2022-09-20T17:00:24.447Z,100634.84
2022-09-20T17:03:48.938Z,100630.81
2022-09-20T17:07:11.778Z,100632.72
2022-09-20T17:10:34.669Z,100644.91
2022-09-20T17:13:59.564Z,100644.06
2022-09-20T17:17:23.340Z,100651.22
2022-09-20T17:20:46.732Z,100653.16
2022-09-20T17:24:10.184Z,100654.25
2022-09-20T17:27:34.172Z,100658.78
2022-09-20T17:31:03.490Z,100659.84
2022-09-20T17:34:26.947Z,100668.69
2022-09-20T17:37:49.791Z,100664.69
2022-09-20T17:41:15.425Z,100680.50
2022-09-20T17:44:41.665Z,100662.69
2022-09-20T17:48:06.792Z,100678.19
2022-09-20T17:51:31.795Z,100684.97
2022-09-20T17:54:54.740Z,100685.03
2022-09-20T17:58:17.598Z,100689.50
2022-09-20T18:01:41.823Z,100696.59
2022-09-20T18:05:07.007Z,100699.16
2022-09-20T18:08:32.730Z,100704.44
2022-09-20T18:11:57.024Z,100701.97
2022-09-20T18:15:20.287Z,100709.00
2022-09-20T18:18:44.476Z,100705.53
2022-09-20T18:22:09.010Z,100719.53
2022-09-20T18:25:52.509Z,100719.59
2022-09-20T18:29:19.474Z,100725.06
2022-09-20T18:32:45.071Z,100733.84
2022-09-20T18:36:09.477Z,100733.00
2022-09-20T18:39:35.307Z,100737.59
2022-09-20T18:43:04.351Z,100745.44
2022-09-20T18:46:31.125Z,100740.34
2022-09-20T18:49:54.532Z,100749.06
2022-09-20T18:53:17.590Z,100754.28
2022-09-20T18:56:44.747Z,100763.84
2022-09-20T19:00:09.556Z,100757.97
2022-09-20T19:03:52.278Z,100763.28
2022-09-20T19:07:23.094Z,100772.75
2022-09-20T19:10:51.094Z,100777.09
2022-09-20T19:14:26.037Z,100786.78
2022-09-20T19:18:04.873Z,100793.78
2022-09-20T19:21:35.624Z,100796.59
2022-09-20T19:25:13.430Z,100804.59
2022-09-20T19:28:37.410Z,100808.41
2022-09-20T19:32:02.934Z,100805.91
2022-09-20T19:35:32.037Z,100800.03
2022-09-20T19:39:05.939Z,100811.19
2022-09-20T19:42:40.067Z,100802.88
2022-09-20T19:46:14.311Z,100816.78
2022-09-20T19:49:49.744Z,100826.28
2022-09-20T19:53:13.631Z,100822.16
2022-09-20T19:56:53.278Z,100831.69
2022-09-20T20:00:18.594Z,100829.44
2022-09-20T20:03:43.445Z,100835.44
2022-09-20T20:07:25.340Z,100834.59
2022-09-20T20:10:58.094Z,100837.28
2022-09-20T20:14:28.528Z,100836.53
2022-09-20T20:18:00.296Z,100837.59
2022-09-20T20:21:33.287Z,100830.16
2022-09-20T20:24:58.604Z,100845.72
2022-09-20T20:28:21.561Z,100843.25
2022-09-20T20:31:45.084Z,100855.72
2022-09-20T20:35:13.426Z,100857.69
2022-09-20T20:38:38.239Z,100858.78
2022-09-20T20:42:03.849Z,100856.31
2022-09-20T20:45:27.323Z,100869.63
2022-09-20T20:48:50.119Z,100862.00
2022-09-20T20:52:13.038Z,100860.50
2022-09-20T20:55:36.119Z,100860.66
2022-09-20T20:59:01.316Z,100872.00
2022-09-20T21:02:24.041Z,100868.72
2022-09-20T21:05:55.323Z,100876.66
2022-09-20T21:09:18.284Z,100882.16
2022-09-20T21:12:41.035Z,100882.31
2022-09-20T21:16:07.312Z,100880.03
2022-09-20T21:19:30.332Z,100879.31
2022-09-20T21:22:53.297Z,100886.47
2022-09-20T21:26:17.130Z,100886.69
2022-09-20T21:29:40.128Z,100890.41
2022-09-20T21:33:04.738Z,100890.63
2022-09-20T21:36:29.332Z,100890.19
2022-09-20T21:39:51.924Z,100895.53
2022-09-20T21:43:15.561Z,100897.63
2022-09-20T21:46:40.474Z,100900.31
2022-09-20T21:50:05.275Z,100905.69
2022-09-20T21:53:27.915Z,100906.78
2022-09-20T21:56:51.088Z,100908.75
2022-09-20T22:00:15.884Z,100907.09
2022-09-20T22:03:40.179Z,100903.81
2022-09-20T22:07:05.287Z,100910.06
2022-09-20T22:10:28.350Z,100914.44
2022-09-20T22:13:53.262Z,100913.69
2022-09-20T22:17:16.121Z,100924.34
2022-09-20T22:20:38.875Z,100923.72
2022-09-20T22:24:05.372Z,100927.34
2022-09-20T22:27:28.372Z,100927.50
2022-09-20T22:30:50.958Z,100925.09
2022-09-20T22:34:17.064Z,100935.59
2022-09-20T22:37:39.817Z,100928.81
2022-09-20T22:41:04.304Z,100927.91
2022-09-20T22:44:27.271Z,100927.22
2022-09-20T22:47:51.453Z,100929.06
2022-09-20T22:51:16.464Z,100924.06
2022-09-20T22:54:39.842Z,100937.09
2022-09-20T22:58:04.125Z,100940.66
2022-09-20T23:01:29.499Z,100946.03
2022-09-20T23:04:52.907Z,100954.81
2022-09-20T23:08:16.789Z,100947.00
2022-09-20T23:11:42.315Z,100948.84
2022-09-20T23:15:07.320Z,100959.22
2022-09-20T23:18:30.292Z,100956.59
2022-09-20T23:21:53.345Z,100954.00
2022-09-20T23:25:16.308Z,100962.56
2022-09-20T23:28:41.005Z,100957.34
2022-09-20T23:32:05.496Z,100964.13
2022-09-20T23:35:28.565Z,100964.03
2022-09-20T23:38:52.137Z,100965.66
2022-09-20T23:42:15.000Z,100959.41
2022-09-20T23:45:37.698Z,100972.31
2022-09-20T23:49:03.577Z,100962.88
2022-09-20T23:52:26.020Z,100971.41
2022-09-20T23:55:48.877Z,100974.81
2022-09-20T23:59:12.149Z,100979.13
